Terminal Aerodrome Forecast
Issued by NWS

Home | Current Version | Previous Version | Text Only | Print | Product List | Glossary On
Versions: 1 2 3 4 5 6 7 8 9 10 11 12 13 14 15 16 17 18 19
000
FTUS41 KBOX 312320
TAFHYA
TAF
KHYA 312320Z 0100/0124 05011KT P6SM OVC045
     FM010600 04014G22KT P6SM -SHRA OVC020
     FM011500 04023G25KT 3SM -RA BR OVC008
     FM011800 04026G34KT 2SM +RA BR OVC003
     FM012000 03028G38KT 2SM RA BR OVC003
     FM012300 02031G44KT 2SM -RA BR OVC008=

USA.gov is the U.S. government's official web portal to all federal, state and local government web resources and services.